createdAt,value
2022-08-23T00:01:40.240Z,1.00
2022-08-23T00:05:42.278Z,1.20
2022-08-23T00:09:44.476Z,1.10
2022-08-23T00:13:47.772Z,1.15
2022-08-23T00:17:50.627Z,1.10
2022-08-23T00:21:54.758Z,1.20
2022-08-23T00:25:56.792Z,1.30
2022-08-23T00:29:59.332Z,1.10
2022-08-23T00:34:01.372Z,1.30
2022-08-23T00:38:31.626Z,1.30
2022-08-23T00:43:08.758Z,1.17
2022-08-23T00:47:33.101Z,1.30
2022-08-23T00:52:02.298Z,1.30
2022-08-23T00:56:08.960Z,1.20
2022-08-23T01:00:12.107Z,1.30
2022-08-23T01:04:14.773Z,1.50
2022-08-23T01:08:16.874Z,1.20
2022-08-23T01:12:32.340Z,1.60
2022-08-23T01:16:45.531Z,1.20
2022-08-23T01:21:05.249Z,1.55
2022-08-23T01:25:16.854Z,1.40
2022-08-23T01:29:19.606Z,1.25
2022-08-23T01:33:21.871Z,1.40
2022-08-23T01:37:24.210Z,1.23
2022-08-23T01:41:26.468Z,1.20
2022-08-23T01:45:30.233Z,1.20
2022-08-23T01:49:34.538Z,1.20
2022-08-23T01:53:37.081Z,1.20
2022-08-23T01:57:42.809Z,1.42
2022-08-23T02:01:48.848Z,1.33
2022-08-23T02:09:59.126Z,1.30
2022-08-23T02:14:04.242Z,1.20
2022-08-23T02:18:14.188Z,1.30
2022-08-23T02:22:18.768Z,1.67
2022-08-23T02:26:20.990Z,1.27
2022-08-23T02:30:33.920Z,1.20
2022-08-23T02:34:37.261Z,1.50
2022-08-23T02:38:40.525Z,1.15
2022-08-23T02:42:43.118Z,1.40
2022-08-23T02:46:46.990Z,1.27
2022-08-23T02:50:50.480Z,1.13
2022-08-23T02:54:53.864Z,1.50
2022-08-23T02:59:00.574Z,1.50
2022-08-23T03:03:03.239Z,2.20
2022-08-23T03:07:05.577Z,1.27
2022-08-23T03:11:26.582Z,1.50
2022-08-23T03:15:30.074Z,1.73
2022-08-23T03:19:32.324Z,1.73
2022-08-23T03:23:35.029Z,1.50
2022-08-23T03:27:38.365Z,1.80
2022-08-23T03:31:46.860Z,1.65
2022-08-23T03:35:49.845Z,1.80
2022-08-23T03:39:52.858Z,1.50
2022-08-23T03:43:55.254Z,1.50
2022-08-23T03:47:58.053Z,1.52
2022-08-23T03:52:01.348Z,1.70
2022-08-23T03:56:06.640Z,1.75
2022-08-23T04:00:11.990Z,1.80
2022-08-23T04:04:19.560Z,1.75
2022-08-23T04:08:42.968Z,2.00
2022-08-23T04:12:46.005Z,1.50
2022-08-23T04:16:51.039Z,1.50
2022-08-23T04:20:55.870Z,1.60
2022-08-23T04:24:58.137Z,1.58
2022-08-23T04:29:00.853Z,1.70
2022-08-23T04:33:03.712Z,1.70
2022-08-23T04:37:13.679Z,2.00
2022-08-23T04:41:34.902Z,1.50
2022-08-23T04:45:41.086Z,2.10
2022-08-23T04:49:49.576Z,1.98
2022-08-23T04:53:51.675Z,1.65
2022-08-23T04:58:14.338Z,1.85
2022-08-23T05:02:20.648Z,1.87
2022-08-23T05:06:24.356Z,1.90
2022-08-23T05:10:26.752Z,1.90
2022-08-23T05:14:29.458Z,2.25
2022-08-23T05:18:31.886Z,2.00
2022-08-23T05:22:35.933Z,2.03
2022-08-23T05:26:58.837Z,2.05
2022-08-23T05:31:11.767Z,1.73
2022-08-23T05:35:21.556Z,1.75
2022-08-23T05:39:25.754Z,1.90
2022-08-23T05:43:36.017Z,1.95
2022-08-23T05:47:38.152Z,1.67
2022-08-23T05:51:54.120Z,1.80
2022-08-23T05:56:09.614Z,1.38
2022-08-23T06:00:14.695Z,1.35
2022-08-23T06:04:25.870Z,1.40
2022-08-23T06:08:28.614Z,1.50
2022-08-23T06:12:32.160Z,1.30
2022-08-23T06:16:40.723Z,1.17
2022-08-23T06:20:43.551Z,1.52
2022-08-23T06:24:50.759Z,1.33
2022-08-23T06:28:56.270Z,1.35
2022-08-23T06:32:59.212Z,1.23
2022-08-23T06:37:10.190Z,1.30
2022-08-23T06:41:30.890Z,1.30
2022-08-23T06:46:05.495Z,1.20
2022-08-23T06:50:09.367Z,1.30
2022-08-23T06:54:32.402Z,1.20
2022-08-23T06:59:07.983Z,1.20
2022-08-23T07:03:28.676Z,1.50
2022-08-23T07:07:50.950Z,1.38
2022-08-23T07:11:54.175Z,1.20
2022-08-23T07:16:00.423Z,1.30
2022-08-23T07:20:03.632Z,1.40
2022-08-23T07:24:08.533Z,1.40
2022-08-23T07:28:12.278Z,1.67
2022-08-23T07:32:18.723Z,1.40
2022-08-23T07:36:23.100Z,1.50
2022-08-23T07:40:27.640Z,1.40
2022-08-23T07:44:34.279Z,1.55
2022-08-23T07:48:53.467Z,1.55
2022-08-23T07:53:03.069Z,1.10
2022-08-23T07:57:05.699Z,1.17
2022-08-23T08:01:37.568Z,1.33
2022-08-23T08:05:40.891Z,1.40
2022-08-23T08:09:43.262Z,1.30
2022-08-23T08:13:47.271Z,1.20
2022-08-23T08:17:50.806Z,1.40
2022-08-23T08:21:53.177Z,1.38
2022-08-23T08:26:13.708Z,1.40
2022-08-23T08:30:26.687Z,1.10
2022-08-23T08:34:28.957Z,1.42
2022-08-23T08:38:31.672Z,1.33
2022-08-23T08:43:06.391Z,1.10
2022-08-23T08:47:16.012Z,1.45
2022-08-23T08:51:42.993Z,1.40
2022-08-23T08:55:49.296Z,1.30
2022-08-23T08:59:58.582Z,1.27
2022-08-23T09:04:02.833Z,1.40
2022-08-23T09:08:43.481Z,1.40
2022-08-23T09:13:00.982Z,1.88
2022-08-23T09:17:18.358Z,1.80
2022-08-23T09:21:21.690Z,1.50
2022-08-23T09:25:24.760Z,1.60
2022-08-23T09:29:37.064Z,1.42
2022-08-23T09:33:43.261Z,1.73
2022-08-23T09:38:20.377Z,1.92
2022-08-23T09:42:33.613Z,1.63
2022-08-23T09:46:41.755Z,1.65
2022-08-23T09:50:54.679Z,1.58
2022-08-23T09:55:02.874Z,1.50
2022-08-23T09:59:39.256Z,1.90
2022-08-23T10:04:05.703Z,1.80
2022-08-23T10:08:10.636Z,1.80
2022-08-23T10:12:16.346Z,2.10
2022-08-23T10:17:01.581Z,1.60
2022-08-23T10:21:16.497Z,1.70
2022-08-23T10:25:36.579Z,2.10
2022-08-23T10:29:48.545Z,1.85
2022-08-23T10:34:15.740Z,2.00
2022-08-23T10:38:47.096Z,1.77
2022-08-23T10:43:08.976Z,1.77
2022-08-23T10:47:37.509Z,1.80
2022-08-23T10:51:47.427Z,2.10
2022-08-23T10:56:06.218Z,3.20
2022-08-23T11:00:21.369Z,2.33
2022-08-23T11:04:44.809Z,2.75
2022-08-23T11:09:03.491Z,1.95
2022-08-23T11:13:21.796Z,2.40
2022-08-23T11:17:29.715Z,2.90
2022-08-23T11:21:38.580Z,1.75
2022-08-23T11:25:44.847Z,1.80
2022-08-23T11:29:47.182Z,1.88
2022-08-23T11:34:23.128Z,1.88
2022-08-23T11:38:48.227Z,1.90
2022-08-23T11:42:53.173Z,2.00
2022-08-23T11:46:59.397Z,1.90
2022-08-23T11:51:18.367Z,1.70
2022-08-23T12:00:06.366Z,2.00
2022-08-23T12:04:55.465Z,1.90
2022-08-23T12:09:25.484Z,1.75
2022-08-23T12:13:52.554Z,2.00
2022-08-23T12:18:06.156Z,1.88
2022-08-23T12:22:15.553Z,1.85
2022-08-23T12:26:28.853Z,2.10
2022-08-23T12:30:44.269Z,1.90
2022-08-23T12:34:58.317Z,1.95
2022-08-23T12:39:18.829Z,1.70
2022-08-23T12:43:24.331Z,1.83
2022-08-23T12:47:26.733Z,2.00
2022-08-23T12:51:29.355Z,2.10
2022-08-23T12:55:35.242Z,1.95
2022-08-23T12:59:50.677Z,1.48
2022-08-23T13:04:08.304Z,2.03
2022-08-23T13:08:19.341Z,1.60
2022-08-23T13:12:29.477Z,1.90
2022-08-23T13:16:40.985Z,2.20
2022-08-23T13:20:43.123Z,1.88
2022-08-23T13:25:29.209Z,1.77
2022-08-23T13:29:33.599Z,1.77
2022-08-23T13:33:36.365Z,1.90
2022-08-23T13:37:46.448Z,1.77
2022-08-23T13:41:48.544Z,1.60
2022-08-23T13:45:54.732Z,1.70
2022-08-23T13:49:58.836Z,1.70
2022-08-23T13:54:03.660Z,1.90
2022-08-23T13:58:10.388Z,1.73
2022-08-23T14:02:15.407Z,1.50
2022-08-23T14:06:17.562Z,1.60
2022-08-23T14:10:22.337Z,1.85
2022-08-23T14:14:25.342Z,2.08
2022-08-23T14:18:27.526Z,1.88
2022-08-23T14:22:29.568Z,1.80
2022-08-23T14:26:31.788Z,1.80
2022-08-23T14:30:38.297Z,1.83
2022-08-23T14:38:42.681Z,1.50
2022-08-23T14:42:45.811Z,1.45
2022-08-23T14:46:47.955Z,1.60
2022-08-23T14:50:50.345Z,1.30
2022-08-23T14:54:52.559Z,1.60
2022-08-23T14:58:54.734Z,1.60
2022-08-23T15:02:57.062Z,1.30
2022-08-23T15:07:18.333Z,1.52
2022-08-23T15:15:43.221Z,1.90
2022-08-23T15:19:45.363Z,1.60
2022-08-23T15:23:47.980Z,1.80
2022-08-23T15:27:51.120Z,1.77
2022-08-23T15:31:54.421Z,1.65
2022-08-23T15:35:58.509Z,2.10
2022-08-23T15:40:01.092Z,1.55
2022-08-23T15:44:03.717Z,1.40
2022-08-23T15:48:29.631Z,1.48
2022-08-23T15:52:31.664Z,1.70
2022-08-23T15:56:37.467Z,1.75
2022-08-23T16:00:39.526Z,1.60
2022-08-23T16:04:42.111Z,1.60
2022-08-23T16:08:49.509Z,1.25
2022-08-23T16:12:51.532Z,1.35
2022-08-23T16:16:56.436Z,1.42
2022-08-23T16:20:58.499Z,1.60
2022-08-23T16:25:00.569Z,1.60
2022-08-23T16:29:09.007Z,1.60
2022-08-23T16:33:11.049Z,1.63
2022-08-23T16:37:13.068Z,1.63
2022-08-23T16:41:15.519Z,1.50
2022-08-23T16:45:17.809Z,1.70
2022-08-23T16:49:27.917Z,1.60
2022-08-23T16:53:30.013Z,1.77
2022-08-23T16:57:32.098Z,1.60
2022-08-23T17:01:52.986Z,1.50
2022-08-23T17:05:55.539Z,1.73
2022-08-23T17:09:57.601Z,1.73
2022-08-23T17:13:59.657Z,1.55
2022-08-23T17:18:07.636Z,1.70
2022-08-23T17:22:10.206Z,1.73
2022-08-23T17:26:13.011Z,1.88
2022-08-23T17:30:18.504Z,1.45
2022-08-23T17:34:20.524Z,1.70
2022-08-23T17:38:22.636Z,1.88
2022-08-23T17:42:24.652Z,1.73
2022-08-23T17:46:27.197Z,1.63
2022-08-23T17:50:29.246Z,1.73
2022-08-23T17:54:31.346Z,2.25
2022-08-23T17:58:33.435Z,2.20
2022-08-23T18:02:35.541Z,1.70
2022-08-23T18:06:37.668Z,1.83
2022-08-23T18:10:40.012Z,1.70
2022-08-23T18:14:42.107Z,1.92
2022-08-23T18:18:44.253Z,2.25
2022-08-23T18:22:46.298Z,1.95
2022-08-23T18:27:07.568Z,2.30
2022-08-23T18:31:15.088Z,2.72
2022-08-23T18:35:17.605Z,2.22
2022-08-23T18:39:31.378Z,2.17
2022-08-23T18:43:37.669Z,2.13
2022-08-23T18:47:40.400Z,2.40
2022-08-23T18:51:42.602Z,2.00
2022-08-23T18:55:45.687Z,2.10
2022-08-23T18:59:47.708Z,2.22
2022-08-23T19:03:49.757Z,2.00
2022-08-23T19:07:51.892Z,2.53
2022-08-23T19:11:53.986Z,1.90
2022-08-23T19:15:56.083Z,2.53
2022-08-23T19:19:58.274Z,2.10
2022-08-23T19:24:00.367Z,2.15
2022-08-23T19:28:02.788Z,2.42
2022-08-23T19:32:05.339Z,2.55
2022-08-23T19:36:12.859Z,2.00
2022-08-23T19:40:26.192Z,2.38
2022-08-23T19:44:29.019Z,2.63
2022-08-23T19:48:31.076Z,2.10
2022-08-23T19:52:33.623Z,2.50
2022-08-23T19:56:42.327Z,2.88
2022-08-23T20:00:45.375Z,2.70
2022-08-23T20:04:47.534Z,3.65
2022-08-23T20:08:49.937Z,2.90
2022-08-23T20:12:52.035Z,3.05
2022-08-23T20:16:54.668Z,2.75
2022-08-23T20:20:57.689Z,2.92
2022-08-23T20:25:00.020Z,2.28
2022-08-23T20:29:04.160Z,2.92
2022-08-23T20:33:06.269Z,2.90
2022-08-23T20:37:08.309Z,2.75
2022-08-23T20:41:10.516Z,2.58
2022-08-23T20:45:19.339Z,2.75
2022-08-23T20:49:22.127Z,2.85
2022-08-23T20:53:24.170Z,2.60
2022-08-23T20:57:26.188Z,3.03
2022-08-23T21:01:34.280Z,2.90
2022-08-23T21:05:36.353Z,3.03
2022-08-23T21:09:39.268Z,2.50
2022-08-23T21:13:43.912Z,2.78
2022-08-23T21:17:47.014Z,2.47
2022-08-23T21:21:50.413Z,2.92
2022-08-23T21:25:57.589Z,2.42
2022-08-23T21:34:01.939Z,2.72
2022-08-23T21:38:04.024Z,2.50
2022-08-23T21:42:14.916Z,2.47
2022-08-23T21:46:17.650Z,2.38
2022-08-23T21:50:19.867Z,2.40
2022-08-23T21:54:26.958Z,2.50
2022-08-23T21:58:29.533Z,2.80
2022-08-23T22:02:31.616Z,2.50
2022-08-23T22:06:35.000Z,2.60
2022-08-23T22:10:38.801Z,2.63
2022-08-23T22:14:46.871Z,2.67
2022-08-23T22:18:49.079Z,2.63
2022-08-23T22:22:51.148Z,2.40
2022-08-23T22:26:54.537Z,3.22
2022-08-23T22:30:58.249Z,2.80
2022-08-23T22:35:00.312Z,2.90
2022-08-23T22:39:03.663Z,2.72
2022-08-23T22:43:05.745Z,2.55
2022-08-23T22:47:07.889Z,2.72
2022-08-23T22:51:16.062Z,2.90
2022-08-23T22:55:18.161Z,2.85
2022-08-23T22:59:22.410Z,2.60
2022-08-23T23:03:29.566Z,2.60
2022-08-23T23:07:50.033Z,2.20
2022-08-23T23:11:52.691Z,2.20
2022-08-23T23:15:55.433Z,2.50
2022-08-23T23:20:16.219Z,2.20
2022-08-23T23:24:26.497Z,2.30
2022-08-23T23:28:28.995Z,2.10
2022-08-23T23:32:31.025Z,2.25
2022-08-23T23:36:33.665Z,2.00
2022-08-23T23:40:37.145Z,2.00
2022-08-23T23:44:39.217Z,1.88
2022-08-23T23:48:43.430Z,2.00
2022-08-23T23:52:45.975Z,1.90
2022-08-23T23:56:48.082Z,1.80
